CheckWX is a tool to help pilots better visualize weather data.  It is not intended as a substitute for an official pre-flight weather briefing.

12:31:47 UTC

EGKB TAF
London Biggin Hill Airport
London, United Kingdom
TAF EGKB 081054Z 0812/0821 24015G25KT 9999 SCT025 TEMPO 0813/0821 7000 SHRA PROB30 TEMPO 0813/0819 26020G35KT 4000 +SHRA

Dec-8@
12:00 UTC

Dec-8 @ 12:00 UTC

Dec-8@
21:00 UTC

Dec-8 @ 21:00 UTC

TAF EGKB 081054Z 0812/0821 24015G25KT 9999 SCT025
Wind
  • 240° at 15 KTS
  • {Gusting to 25 KTS
Cloud Levels
  • Scattered at 2,500' AGL

Dec-8@
13:00 UTC

Dec-8 @ 13:00 UTC

Dec-8@
19:00 UTC

Dec-8 @ 19:00 UTC

PROB30 TEMPO 0813/0819 26020G35KT 4000 +SHRA

Temporary - 30% Likelihood

Temporary - 30% Likelihood during this time.

Wind
  • 260° at 20 KTS
  • {Gusting to 35 KTS
Conditions
Heavy Rain

Dec-8@
13:00 UTC

Dec-8 @ 13:00 UTC

Dec-8@
21:00 UTC

Dec-8 @ 21:00 UTC

TEMPO 0813/0821 7000 SHRA

Temporary

Temporary Changes expected for less than half the time period

Conditions
Rain